createdAt,value
2023-09-17T00:01:12.391Z,15.33
2023-09-17T00:03:36.233Z,15.27
2023-09-17T00:05:59.981Z,15.24
2023-09-17T00:08:23.642Z,15.23
2023-09-17T00:10:47.389Z,15.21
2023-09-17T00:13:11.224Z,15.21
2023-09-17T00:15:36.555Z,15.15
2023-09-17T00:18:00.663Z,15.13
2023-09-17T00:20:24.303Z,15.05
2023-09-17T00:22:48.071Z,15.09
2023-09-17T00:25:12.208Z,15.04
2023-09-17T00:27:35.911Z,15.04
2023-09-17T00:29:58.578Z,15.02
2023-09-17T00:32:23.656Z,14.99
2023-09-17T00:34:47.614Z,15.00
2023-09-17T00:37:12.678Z,14.97
2023-09-17T00:39:37.759Z,14.92
2023-09-17T00:42:01.510Z,14.91
2023-09-17T00:44:25.119Z,14.91
2023-09-17T00:46:50.083Z,14.87
2023-09-17T00:49:15.532Z,14.87
2023-09-17T00:51:39.236Z,14.81
2023-09-17T00:54:02.916Z,14.81
2023-09-17T00:56:28.260Z,14.80
2023-09-17T00:58:53.322Z,14.79
2023-09-17T01:01:17.136Z,14.76
2023-09-17T01:03:42.239Z,14.73
2023-09-17T01:06:09.220Z,14.72
2023-09-17T01:08:33.742Z,14.69
2023-09-17T01:10:57.631Z,14.69
2023-09-17T01:13:21.501Z,14.69
2023-09-17T01:15:45.135Z,14.66
2023-09-17T01:18:12.049Z,14.70
2023-09-17T01:20:46.543Z,14.66
2023-09-17T01:23:21.392Z,14.61
2023-09-17T01:25:57.382Z,14.59
2023-09-17T01:28:23.550Z,14.55
2023-09-17T01:30:48.290Z,14.54
2023-09-17T01:33:12.149Z,14.52
2023-09-17T01:35:36.386Z,14.50
2023-09-17T01:38:03.376Z,14.46
2023-09-17T01:40:28.124Z,14.45
2023-09-17T01:42:53.271Z,14.42
2023-09-17T01:45:19.043Z,14.40
2023-09-17T01:47:44.975Z,14.39
2023-09-17T01:50:10.377Z,14.36
2023-09-17T01:52:35.497Z,14.34
2023-09-17T01:54:59.094Z,14.29
2023-09-17T01:57:22.734Z,14.34
2023-09-17T01:59:46.331Z,14.27
2023-09-17T02:02:11.485Z,14.29
2023-09-17T02:04:35.358Z,14.22
2023-09-17T02:06:59.061Z,14.23
2023-09-17T02:09:23.136Z,14.22
2023-09-17T02:11:46.970Z,14.22
2023-09-17T02:14:10.558Z,14.21
2023-09-17T02:16:34.330Z,14.16
2023-09-17T02:19:01.872Z,14.16
2023-09-17T02:21:25.569Z,14.17
2023-09-17T02:23:49.620Z,14.17
2023-09-17T02:26:13.607Z,14.15
2023-09-17T02:28:37.234Z,14.08
2023-09-17T02:31:03.592Z,14.09
2023-09-17T02:33:27.265Z,14.07
2023-09-17T02:35:52.380Z,14.04
2023-09-17T02:38:16.141Z,14.03
2023-09-17T02:40:41.174Z,13.96
2023-09-17T02:43:04.945Z,14.00
2023-09-17T02:45:28.751Z,13.97
2023-09-17T02:47:52.529Z,13.97
2023-09-17T02:50:16.347Z,14.07
2023-09-17T02:52:41.752Z,13.96
2023-09-17T02:55:06.218Z,13.94
2023-09-17T02:57:30.074Z,13.96
2023-09-17T02:59:54.666Z,13.95
2023-09-17T03:02:19.232Z,13.93
2023-09-17T03:04:43.055Z,13.92
2023-09-17T03:07:07.352Z,13.94
2023-09-17T03:09:33.069Z,13.92
2023-09-17T03:11:56.703Z,13.81
2023-09-17T03:14:21.438Z,13.79
2023-09-17T03:16:45.230Z,13.81
2023-09-17T03:19:09.053Z,13.75
2023-09-17T03:21:32.955Z,13.79
2023-09-17T03:23:56.891Z,13.83
2023-09-17T03:26:23.752Z,13.76
2023-09-17T03:28:47.510Z,13.74
2023-09-17T03:31:11.186Z,13.72
2023-09-17T03:33:35.279Z,13.72
2023-09-17T03:36:00.264Z,13.71
2023-09-17T03:38:23.963Z,13.72
2023-09-17T03:40:47.850Z,13.69
2023-09-17T03:43:13.658Z,13.71
2023-09-17T03:45:37.345Z,13.71
2023-09-17T03:48:01.026Z,13.71
2023-09-17T03:50:26.079Z,13.71
2023-09-17T03:52:52.960Z,13.67
2023-09-17T03:55:17.817Z,13.67
2023-09-17T03:57:42.073Z,13.66
2023-09-17T04:00:11.477Z,13.69
2023-09-17T04:02:38.351Z,13.66
2023-09-17T04:05:02.648Z,13.64
2023-09-17T04:07:27.277Z,13.63
2023-09-17T04:09:50.916Z,13.54
2023-09-17T04:12:15.839Z,13.54
2023-09-17T04:14:39.730Z,13.51
2023-09-17T04:17:06.698Z,13.56
2023-09-17T04:19:31.074Z,13.60
2023-09-17T04:21:54.777Z,13.52
2023-09-17T04:24:18.336Z,13.51
2023-09-17T04:26:45.461Z,13.47
2023-09-17T04:29:10.922Z,13.45
2023-09-17T04:31:34.665Z,13.54
2023-09-17T04:33:59.787Z,13.41
2023-09-17T04:36:23.739Z,13.37
2023-09-17T04:38:48.131Z,13.39
2023-09-17T04:41:11.758Z,13.42
2023-09-17T04:43:35.408Z,13.38
2023-09-17T04:46:00.550Z,13.37
2023-09-17T04:48:28.065Z,13.35
2023-09-17T04:50:53.137Z,13.28
2023-09-17T04:53:17.121Z,13.30
2023-09-17T04:55:42.963Z,13.32
2023-09-17T04:58:06.812Z,13.36
2023-09-17T05:00:30.791Z,13.34
2023-09-17T05:02:54.825Z,13.30
2023-09-17T05:05:23.983Z,13.24
2023-09-17T05:07:51.544Z,13.27
2023-09-17T05:10:16.609Z,13.32
2023-09-17T05:12:40.548Z,13.34
2023-09-17T05:15:04.562Z,13.38
2023-09-17T05:17:28.466Z,13.37
2023-09-17T05:19:52.637Z,13.37
2023-09-17T05:22:16.452Z,13.44
2023-09-17T05:24:42.090Z,13.42
2023-09-17T05:27:06.573Z,13.44
2023-09-17T05:29:30.454Z,13.47
2023-09-17T05:31:54.741Z,13.53
2023-09-17T05:34:20.857Z,13.65
2023-09-17T05:36:44.661Z,13.67
2023-09-17T05:39:09.695Z,13.76
2023-09-17T05:41:34.967Z,13.91
2023-09-17T05:43:58.706Z,14.01
2023-09-17T05:46:22.560Z,14.13
2023-09-17T05:48:46.212Z,14.26
2023-09-17T05:51:09.955Z,14.34
2023-09-17T05:53:33.596Z,14.71
2023-09-17T05:55:57.376Z,15.13
2023-09-17T05:58:22.692Z,15.60
2023-09-17T06:00:46.656Z,15.97
2023-09-17T06:03:10.422Z,16.27
2023-09-17T06:05:34.203Z,16.53
2023-09-17T06:07:57.814Z,16.63
2023-09-17T06:10:22.299Z,16.56
2023-09-17T06:12:45.947Z,16.81
2023-09-17T06:15:11.973Z,17.00
2023-09-17T06:17:36.593Z,16.93
2023-09-17T06:20:00.474Z,17.27
2023-09-17T06:22:24.927Z,17.62
2023-09-17T06:24:48.827Z,17.70
2023-09-17T06:27:12.436Z,17.93
2023-09-17T06:29:36.164Z,18.18
2023-09-17T06:32:01.434Z,18.43
2023-09-17T06:34:26.253Z,18.88
2023-09-17T06:36:49.937Z,19.40
2023-09-17T06:39:14.169Z,19.91
2023-09-17T06:41:41.059Z,20.01
2023-09-17T06:44:07.280Z,20.52
2023-09-17T06:46:31.146Z,20.81
2023-09-17T06:48:56.201Z,21.22
2023-09-17T06:51:20.127Z,21.41
2023-09-17T06:53:43.786Z,21.45
2023-09-17T06:56:09.859Z,21.55
2023-09-17T06:58:33.651Z,21.60
2023-09-17T07:00:57.321Z,21.34
2023-09-17T07:03:21.072Z,21.13
2023-09-17T07:05:46.169Z,21.01
2023-09-17T07:08:09.828Z,21.13
2023-09-17T07:10:33.574Z,21.26
2023-09-17T07:12:57.375Z,21.08
2023-09-17T07:15:21.573Z,21.14
2023-09-17T07:17:45.294Z,21.07
2023-09-17T07:20:10.423Z,20.97
2023-09-17T07:22:36.219Z,21.00
2023-09-17T07:25:00.764Z,21.28
2023-09-17T07:27:24.502Z,21.17
2023-09-17T07:29:49.290Z,21.10
2023-09-17T07:32:13.436Z,20.99
2023-09-17T07:34:37.224Z,21.19
2023-09-17T07:37:01.856Z,21.27
2023-09-17T07:39:26.843Z,21.29
2023-09-17T07:41:50.509Z,21.25
2023-09-17T07:44:14.095Z,21.36
2023-09-17T07:46:37.804Z,21.13
2023-09-17T07:49:01.692Z,21.41
2023-09-17T07:51:25.554Z,21.45
2023-09-17T07:53:49.391Z,21.47
2023-09-17T07:56:16.598Z,21.28
2023-09-17T07:58:42.366Z,21.51
2023-09-17T08:01:08.030Z,21.46
2023-09-17T08:03:31.749Z,21.55
2023-09-17T08:05:55.523Z,21.54
2023-09-17T08:08:19.387Z,21.44
2023-09-17T08:10:43.315Z,21.38
2023-09-17T08:13:08.466Z,21.42
2023-09-17T08:15:32.180Z,21.42
2023-09-17T08:17:56.017Z,21.64
2023-09-17T08:20:21.020Z,21.75
2023-09-17T08:22:45.216Z,21.76
2023-09-17T08:25:10.997Z,21.43
2023-09-17T08:27:34.583Z,21.36
2023-09-17T08:30:04.596Z,21.64
2023-09-17T08:32:28.592Z,21.47
2023-09-17T08:34:52.274Z,21.69
2023-09-17T08:37:15.906Z,21.81
2023-09-17T08:39:39.584Z,21.86
2023-09-17T08:42:04.750Z,21.81
2023-09-17T08:44:30.118Z,21.88
2023-09-17T08:46:57.728Z,21.86
2023-09-17T08:49:21.445Z,22.00
2023-09-17T08:51:47.627Z,22.09
2023-09-17T08:54:16.176Z,22.42
2023-09-17T08:56:45.703Z,22.19
2023-09-17T08:59:13.334Z,22.58
2023-09-17T09:01:39.873Z,22.78
2023-09-17T09:04:07.584Z,22.94
2023-09-17T09:06:32.548Z,23.02
2023-09-17T09:08:57.356Z,23.06
2023-09-17T09:11:21.490Z,23.23
2023-09-17T09:13:45.563Z,23.38
2023-09-17T09:16:09.881Z,23.41
2023-09-17T09:18:33.573Z,23.55
2023-09-17T09:20:58.610Z,23.65
2023-09-17T09:23:22.259Z,23.62
2023-09-17T09:25:47.059Z,23.50
2023-09-17T09:28:10.750Z,23.72
2023-09-17T09:30:34.674Z,23.88
2023-09-17T09:32:59.441Z,24.10
2023-09-17T09:35:24.441Z,24.30
2023-09-17T09:37:51.257Z,24.37
2023-09-17T09:40:16.789Z,24.73
2023-09-17T09:42:40.451Z,24.71
2023-09-17T09:45:05.861Z,24.70
2023-09-17T09:47:29.545Z,24.95
2023-09-17T09:49:53.179Z,25.65
2023-09-17T09:52:17.992Z,26.20
2023-09-17T09:54:45.019Z,26.42
2023-09-17T09:57:09.547Z,26.39
2023-09-17T09:59:33.496Z,26.42
2023-09-17T10:01:57.356Z,27.04
2023-09-17T10:04:21.105Z,27.36
2023-09-17T10:06:44.784Z,27.23
2023-09-17T10:09:10.718Z,27.07
2023-09-17T10:11:36.946Z,27.87
2023-09-17T10:14:05.242Z,28.14
2023-09-17T10:16:30.761Z,28.03
2023-09-17T10:18:55.358Z,28.57
2023-09-17T10:21:19.354Z,28.77
2023-09-17T10:23:44.046Z,28.62
2023-09-17T10:26:11.412Z,28.58
2023-09-17T10:28:38.195Z,28.90
2023-09-17T10:31:03.083Z,29.21
2023-09-17T10:33:29.645Z,29.17
2023-09-17T10:35:54.411Z,29.43
2023-09-17T10:38:20.886Z,29.33
2023-09-17T10:40:45.433Z,29.37
2023-09-17T10:43:10.362Z,29.79
2023-09-17T10:45:38.834Z,29.54
2023-09-17T10:48:04.908Z,29.66
2023-09-17T10:50:29.794Z,29.90
2023-09-17T10:52:53.521Z,29.36
2023-09-17T10:55:17.686Z,29.81
2023-09-17T10:57:44.012Z,30.13
2023-09-17T11:00:12.727Z,29.91
2023-09-17T11:02:39.422Z,29.98
2023-09-17T11:05:05.994Z,30.24
2023-09-17T11:07:32.131Z,28.95
2023-09-17T11:09:57.092Z,29.16
2023-09-17T11:12:24.175Z,29.55
2023-09-17T11:14:48.316Z,28.70
2023-09-17T11:17:11.947Z,29.22
2023-09-17T11:19:37.041Z,29.86
2023-09-17T11:22:14.898Z,29.55
2023-09-17T11:24:39.284Z,30.09
2023-09-17T11:27:05.644Z,30.23
2023-09-17T11:29:40.987Z,30.35
2023-09-17T11:32:06.298Z,30.01
2023-09-17T11:34:30.075Z,30.05
2023-09-17T11:36:55.328Z,30.04
2023-09-17T11:39:21.791Z,30.19
2023-09-17T11:41:47.683Z,30.10
2023-09-17T11:44:11.379Z,30.39
2023-09-17T11:46:35.678Z,30.50
2023-09-17T11:48:59.339Z,30.25
2023-09-17T11:51:26.937Z,30.78
2023-09-17T11:53:59.581Z,30.98
2023-09-17T11:56:23.406Z,30.68
2023-09-17T11:58:47.041Z,30.96
2023-09-17T12:01:10.868Z,31.01
2023-09-17T12:03:34.525Z,31.32
2023-09-17T12:05:59.277Z,30.82
2023-09-17T12:08:23.437Z,30.23
2023-09-17T12:10:53.605Z,29.91
2023-09-17T12:13:18.078Z,29.33
2023-09-17T12:15:43.081Z,29.84
2023-09-17T12:18:07.801Z,30.60
2023-09-17T12:20:42.453Z,30.75
2023-09-17T12:23:14.274Z,30.61
2023-09-17T12:25:45.261Z,30.01
2023-09-17T12:28:10.336Z,30.89
2023-09-17T12:30:34.012Z,30.95
2023-09-17T12:32:57.723Z,31.05
2023-09-17T12:35:21.591Z,31.25
2023-09-17T12:37:45.289Z,31.02
2023-09-17T12:40:10.139Z,30.99
2023-09-17T12:42:35.943Z,31.47
2023-09-17T12:45:00.979Z,30.67
2023-09-17T12:47:26.311Z,30.87
2023-09-17T12:49:50.485Z,31.10
2023-09-17T12:52:15.172Z,31.35
2023-09-17T12:54:38.872Z,31.61
2023-09-17T12:57:03.711Z,31.69
2023-09-17T12:59:30.803Z,30.69
2023-09-17T13:01:57.146Z,30.95
2023-09-17T13:04:20.989Z,31.08
2023-09-17T13:06:44.840Z,31.50
2023-09-17T13:09:08.952Z,31.42
2023-09-17T13:11:32.886Z,31.38
2023-09-17T13:13:58.297Z,30.93
2023-09-17T13:16:23.202Z,31.45
2023-09-17T13:18:51.539Z,31.36
2023-09-17T13:21:16.055Z,31.73
2023-09-17T13:23:40.547Z,31.59
2023-09-17T13:26:04.317Z,31.59
2023-09-17T13:28:27.983Z,30.01
2023-09-17T13:30:53.419Z,30.56
2023-09-17T13:33:17.550Z,31.16
2023-09-17T13:35:45.218Z,31.14
2023-09-17T13:38:14.110Z,31.61
2023-09-17T13:40:45.098Z,31.54
2023-09-17T13:43:08.791Z,31.69
2023-09-17T13:45:32.462Z,31.25
2023-09-17T13:47:56.169Z,31.48
2023-09-17T13:50:19.827Z,31.66
2023-09-17T13:52:45.881Z,31.57
2023-09-17T13:55:10.743Z,31.35
2023-09-17T13:57:34.429Z,31.40
2023-09-17T13:59:58.012Z,31.37
2023-09-17T14:02:21.674Z,31.01
2023-09-17T14:04:45.544Z,31.05
2023-09-17T14:07:09.513Z,31.11
2023-09-17T14:09:34.500Z,31.18
2023-09-17T14:11:58.187Z,31.16
2023-09-17T14:14:21.878Z,30.98
2023-09-17T14:16:47.439Z,30.74
2023-09-17T14:19:18.083Z,30.80
2023-09-17T14:21:42.057Z,30.79
2023-09-17T14:24:06.174Z,30.72
2023-09-17T14:26:31.294Z,30.59
2023-09-17T14:28:55.055Z,30.72
2023-09-17T14:31:18.923Z,30.60
2023-09-17T14:33:43.044Z,30.54
2023-09-17T14:36:07.078Z,30.40
2023-09-17T14:38:30.794Z,30.28
2023-09-17T14:40:54.452Z,30.08
2023-09-17T14:43:19.469Z,29.56
2023-09-17T14:45:43.136Z,29.77
2023-09-17T14:48:07.410Z,29.88
2023-09-17T14:50:31.184Z,29.84
2023-09-17T14:52:54.788Z,29.49
2023-09-17T14:55:18.473Z,29.51
2023-09-17T14:57:42.857Z,29.75
2023-09-17T15:00:15.226Z,29.56
2023-09-17T15:02:39.142Z,29.45
2023-09-17T15:05:03.614Z,29.35
2023-09-17T15:07:28.085Z,29.25
2023-09-17T15:09:52.600Z,29.23
2023-09-17T15:12:16.328Z,28.76
2023-09-17T15:14:39.984Z,28.73
2023-09-17T15:17:05.243Z,28.78
2023-09-17T15:19:28.939Z,28.30
2023-09-17T15:21:52.732Z,28.33
2023-09-17T15:24:16.306Z,28.28
2023-09-17T15:26:40.027Z,28.24
2023-09-17T15:29:05.036Z,28.07
2023-09-17T15:31:28.837Z,27.50
2023-09-17T15:33:54.308Z,27.95
2023-09-17T15:36:18.680Z,27.65
2023-09-17T15:38:42.280Z,27.35
2023-09-17T15:41:06.616Z,27.50
2023-09-17T15:43:30.394Z,27.51
2023-09-17T15:45:54.098Z,27.41
2023-09-17T15:48:17.741Z,27.18
2023-09-17T15:50:43.241Z,27.08
2023-09-17T15:53:07.047Z,27.28
2023-09-17T15:55:30.781Z,27.15
2023-09-17T15:57:54.569Z,27.09
2023-09-17T16:00:18.539Z,27.03
2023-09-17T16:02:42.500Z,27.00
2023-09-17T16:05:06.962Z,26.92
2023-09-17T16:07:34.085Z,26.88
2023-09-17T16:09:57.885Z,26.76
2023-09-17T16:12:22.646Z,26.68
2023-09-17T16:14:46.307Z,26.63
2023-09-17T16:17:09.999Z,26.54
2023-09-17T16:19:37.230Z,26.36
2023-09-17T16:22:03.681Z,26.38
2023-09-17T16:24:28.669Z,26.30
2023-09-17T16:26:52.285Z,26.19
2023-09-17T16:29:16.045Z,26.03
2023-09-17T16:31:40.985Z,25.85
2023-09-17T16:34:04.812Z,25.72
2023-09-17T16:36:28.644Z,25.73
2023-09-17T16:38:52.259Z,25.64
2023-09-17T16:41:17.270Z,25.62
2023-09-17T16:43:42.130Z,25.53
2023-09-17T16:46:05.864Z,25.33
2023-09-17T16:48:29.743Z,25.22
2023-09-17T16:50:53.507Z,25.13
2023-09-17T16:53:18.608Z,24.99
2023-09-17T16:55:42.878Z,24.89
2023-09-17T16:58:08.146Z,24.79
2023-09-17T17:00:32.356Z,24.68
2023-09-17T17:02:56.125Z,24.56
2023-09-17T17:05:20.645Z,24.42
2023-09-17T17:07:44.434Z,24.31
2023-09-17T17:10:08.825Z,24.24
2023-09-17T17:12:32.979Z,24.12
2023-09-17T17:14:58.168Z,24.00
2023-09-17T17:17:21.879Z,23.90
2023-09-17T17:19:45.630Z,23.80
2023-09-17T17:22:09.474Z,23.68
2023-09-17T17:24:33.268Z,23.60
2023-09-17T17:26:57.040Z,23.49
2023-09-17T17:29:20.744Z,23.40
2023-09-17T17:31:45.856Z,23.23
2023-09-17T17:34:11.416Z,23.19
2023-09-17T17:36:35.162Z,23.13
2023-09-17T17:38:58.766Z,22.99
2023-09-17T17:41:22.424Z,22.90
2023-09-17T17:43:46.089Z,22.77
2023-09-17T17:46:10.145Z,22.72
2023-09-17T17:48:35.361Z,22.61
2023-09-17T17:50:59.062Z,22.53
2023-09-17T17:53:22.722Z,22.52
2023-09-17T17:55:46.450Z,22.40
2023-09-17T17:58:10.126Z,22.30
2023-09-17T18:00:34.011Z,22.24
2023-09-17T18:02:57.906Z,22.12
2023-09-17T18:05:23.142Z,22.04
2023-09-17T18:07:47.064Z,21.93
2023-09-17T18:10:12.661Z,21.87
2023-09-17T18:12:36.407Z,21.80
2023-09-17T18:15:00.035Z,21.71
2023-09-17T18:17:23.708Z,21.69
2023-09-17T18:19:47.387Z,21.59
2023-09-17T18:22:12.430Z,21.53
2023-09-17T18:24:36.039Z,21.44
2023-09-17T18:26:59.692Z,21.40
2023-09-17T18:29:28.416Z,21.32
2023-09-17T18:31:52.172Z,21.27
2023-09-17T18:34:15.908Z,21.20
2023-09-17T18:36:42.403Z,21.13
2023-09-17T18:39:07.525Z,21.09
2023-09-17T18:41:31.187Z,21.01
2023-09-17T18:43:55.174Z,20.98
2023-09-17T18:46:19.675Z,20.92
2023-09-17T18:48:43.379Z,20.85
2023-09-17T18:51:07.291Z,20.78
2023-09-17T18:53:30.932Z,20.71
2023-09-17T18:55:55.918Z,20.65
2023-09-17T18:58:19.616Z,20.61
2023-09-17T19:00:43.365Z,20.55
2023-09-17T19:03:07.354Z,20.43
2023-09-17T19:05:31.130Z,20.43
2023-09-17T19:07:54.778Z,20.36
2023-09-17T19:10:18.725Z,20.31
2023-09-17T19:12:43.988Z,20.27
2023-09-17T19:15:09.748Z,20.22
2023-09-17T19:17:33.964Z,20.18
2023-09-17T19:19:57.652Z,20.11
2023-09-17T19:22:21.352Z,20.05
2023-09-17T19:24:45.081Z,20.01
2023-09-17T19:27:08.740Z,19.98
2023-09-17T19:29:33.794Z,19.91
2023-09-17T19:31:57.505Z,19.85
2023-09-17T19:34:21.178Z,19.83
2023-09-17T19:36:44.770Z,19.79
2023-09-17T19:39:09.249Z,19.75
2023-09-17T19:41:35.046Z,19.75
2023-09-17T19:43:58.754Z,19.68
2023-09-17T19:46:26.340Z,19.65
2023-09-17T19:48:50.313Z,19.62
2023-09-17T19:51:14.110Z,19.57
2023-09-17T19:53:39.743Z,19.53
2023-09-17T19:56:03.404Z,19.50
2023-09-17T19:58:27.054Z,19.44
2023-09-17T20:00:51.227Z,19.44
2023-09-17T20:03:16.716Z,19.38
2023-09-17T20:05:40.458Z,19.37
2023-09-17T20:08:08.575Z,19.33
2023-09-17T20:10:32.507Z,19.24
2023-09-17T20:12:56.166Z,19.29
2023-09-17T20:15:19.827Z,19.25
2023-09-17T20:17:44.229Z,19.23
2023-09-17T20:20:10.449Z,19.19
2023-09-17T20:22:44.528Z,19.21
2023-09-17T20:25:09.941Z,19.13
2023-09-17T20:27:33.584Z,19.09
2023-09-17T20:29:57.250Z,19.06
2023-09-17T20:32:20.908Z,19.05
2023-09-17T20:34:44.602Z,19.02
2023-09-17T20:37:10.404Z,18.96
2023-09-17T20:39:34.275Z,18.91
2023-09-17T20:41:57.982Z,18.88
2023-09-17T20:44:23.080Z,18.84
2023-09-17T20:46:47.609Z,18.83
2023-09-17T20:49:11.403Z,18.83
2023-09-17T20:51:34.979Z,18.76
2023-09-17T20:54:00.029Z,18.70
2023-09-17T20:56:23.761Z,18.67
2023-09-17T20:58:48.028Z,18.65
2023-09-17T21:01:11.775Z,18.68
2023-09-17T21:03:35.519Z,18.65
2023-09-17T21:05:59.238Z,18.63
2023-09-17T21:08:22.917Z,18.61
2023-09-17T21:10:48.791Z,18.58
2023-09-17T21:13:12.607Z,18.60
2023-09-17T21:15:36.416Z,18.54
2023-09-17T21:18:00.140Z,18.51
2023-09-17T21:20:23.784Z,18.47
2023-09-17T21:22:49.443Z,18.46
2023-09-17T21:25:13.293Z,18.45
2023-09-17T21:27:39.414Z,18.42
2023-09-17T21:30:03.018Z,18.33
2023-09-17T21:32:27.106Z,18.35
2023-09-17T21:34:50.901Z,18.31
2023-09-17T21:37:14.601Z,18.28
2023-09-17T21:39:38.344Z,18.27
2023-09-17T21:42:02.067Z,18.23
2023-09-17T21:44:27.172Z,18.21
2023-09-17T21:46:51.176Z,18.19
2023-09-17T21:49:16.412Z,18.18
2023-09-17T21:51:40.131Z,18.15
2023-09-17T21:54:03.784Z,18.09
2023-09-17T21:56:27.518Z,18.08
2023-09-17T21:58:51.455Z,18.08
2023-09-17T22:01:19.439Z,18.06
2023-09-17T22:03:43.434Z,18.04
2023-09-17T22:06:07.381Z,18.04
2023-09-17T22:08:30.986Z,18.03
2023-09-17T22:10:54.682Z,18.03
2023-09-17T22:13:19.768Z,17.99
2023-09-17T22:15:43.511Z,17.97
2023-09-17T22:18:09.458Z,17.99
2023-09-17T22:20:33.448Z,17.99
2023-09-17T22:22:57.695Z,17.98
2023-09-17T22:25:21.604Z,17.94
2023-09-17T22:27:45.169Z,17.94
2023-09-17T22:30:10.610Z,17.87
2023-09-17T22:32:34.295Z,17.87
2023-09-17T22:34:59.413Z,17.84
2023-09-17T22:37:23.168Z,17.87
2023-09-17T22:39:47.563Z,17.82
2023-09-17T22:42:11.177Z,17.83
2023-09-17T22:44:38.057Z,17.79
2023-09-17T22:47:03.111Z,17.75
2023-09-17T22:49:30.257Z,17.76
2023-09-17T22:51:56.330Z,17.76
2023-09-17T22:54:20.778Z,17.69
2023-09-17T22:56:44.404Z,17.66
2023-09-17T22:59:08.153Z,17.70
2023-09-17T23:01:31.926Z,17.68
2023-09-17T23:03:55.650Z,17.66
2023-09-17T23:06:19.396Z,17.62
2023-09-17T23:08:44.534Z,17.63
2023-09-17T23:11:08.922Z,17.63
2023-09-17T23:13:32.935Z,17.60
2023-09-17T23:15:57.047Z,17.60
2023-09-17T23:18:21.061Z,17.58
2023-09-17T23:20:44.825Z,17.54
2023-09-17T23:23:09.942Z,17.52
2023-09-17T23:25:35.428Z,17.50
2023-09-17T23:27:59.588Z,17.47
2023-09-17T23:30:23.453Z,17.52
2023-09-17T23:32:48.177Z,17.46
2023-09-17T23:35:13.225Z,17.43
2023-09-17T23:37:36.974Z,17.39
2023-09-17T23:40:00.682Z,17.39
2023-09-17T23:42:25.742Z,17.34
2023-09-17T23:44:49.507Z,17.33
2023-09-17T23:47:13.213Z,17.30
2023-09-17T23:49:36.953Z,17.29
2023-09-17T23:52:00.591Z,17.27
2023-09-17T23:54:24.293Z,17.32
2023-09-17T23:56:47.971Z,17.27
2023-09-17T23:59:12.998Z,17.27
